Archival Weather

South Haven Area Rgnl

South Haven, Michigan (KLWA)

Report from: Saturday, September 30, 2023 2:15 AM EDT
Current time: Tuesday, February 27, 2024 4:52 AM EST

Current weather – Weather history – Daily summaries
Weather forecast

Temperature12.0°C (53.6°F)
Dew point11.3°C (52.3°F)
Winds Calm
Visibility7 mi. (11.3 km)
Clouds Sky clear
Altimeter30.19 in.Hg (1022 mB)
Relative humidity95 %
Density altitude-477 ft. (-145 m)
Remarks Fully automated report
Automated weather observing station with precipitation discriminator
Flight conditions Visual Meteorological Conditions
Raw dataKLWA 300615Z AUTO 00000KT 7SM CLR 12/11 A3019 RMK AO2 T01200113
An error has occurred. This application may no longer respond until reloaded. Reload 🗙